PWSweather.com
Personal Weather Stations
Station Observations
METEOSOB
BrnoSobesiceCZ 644 00

BrnoSobesiceCZ 644 00

Lat: 49.2538513, Lon: 16.623951000000034

Elevation: 374

Station Type: WH 1080

http://meteo-jn.cz

Latest ConditionsUpdated 3:15:01 PM GMT+01:01 Monday, Sep 24, 2018
Currently Today's Max Today's Min Today's Average
Temperature 47.5°F8.6°C 56.1°F13.4°C 45.9°F7.7°C 49.4°F9.7°C
Dew Point 46.7°F8.2°C 56.1°F13.4°C 42.5°F5.8°C 46.1°F7.8°C
Winds 4.1 mph NW6.6 kmh NW 12.7 mph -20.4 kmh - - 7.6 mph 12.2 kmh
Wind Gusts 13.0 mph20.9 kmh 46.3 mph74.5 kmh - -
Humidity 97% 100% 72% 89%
Pressure 30.29 in1025.7 mb 30.30 in1026.1 mb 29.76 in1007.8 mb -
Precipitation - 0.16 in4.1 mm - -
Hour Temp Dew Point Humidity Winds Wind Gusts Pressure Precip Precip Rate Daily Precip Total
03:15 PM 47.5°F8.6°C 46.7°F8.2°C 97% 4.1 mph NW6.6 kmh NW 13.0 mph20.9 kmh 30.29 in1025.7 mb 0.06 in1.5 mm 0.00 in0.0 mm 0.16 in4.1 mm
03:00 PM 48.2°F9.0°C 45.1°F7.3°C 89% 10.4 mph NNW16.7 kmh NNW 31.1 mph50.1 kmh 30.30 in1026.1 mb 0.06 in1.5 mm 0.05 in1.3 mm 0.14 in3.6 mm
02:45 PM 50.9°F10.5°C 43.3°F6.3°C 75% 7.6 mph NW12.2 kmh NW 20.6 mph33.2 kmh 30.28 in1025.4 mb 0.02 in0.5 mm 0.00 in0.0 mm 0.09 in2.3 mm
02:30 PM 50.0°F10.0°C 43.1°F6.2°C 77% 8.4 mph NW13.5 kmh NW 19.0 mph30.6 kmh 30.27 in1025.1 mb 0.02 in0.5 mm 0.00 in0.0 mm 0.09 in2.3 mm
02:15 PM 50.0°F10.0°C 44.1°F6.7°C 80% 8.7 mph NW14.0 kmh NW 20.6 mph33.2 kmh 30.28 in1025.4 mb 0.02 in0.5 mm 0.00 in0.0 mm 0.09 in2.3 mm
02:00 PM 50.5°F10.3°C 44.9°F7.2°C 81% 7.6 mph NW12.2 kmh NW 18.3 mph29.5 kmh 30.28 in1025.4 mb 0.03 in0.8 mm 0.00 in0.0 mm 0.08 in2.0 mm
01:45 PM 49.6°F9.8°C 46.2°F7.9°C 88% 8.6 mph NW13.8 kmh NW 18.3 mph29.5 kmh 30.27 in1025.1 mb 0.03 in0.8 mm 0.00 in0.0 mm 0.08 in2.0 mm
01:30 PM 48.6°F9.2°C 45.8°F7.7°C 90% 5.4 mph NW8.7 kmh NW 13.0 mph20.9 kmh 30.28 in1025.4 mb 0.03 in0.8 mm 0.00 in0.0 mm 0.08 in2.0 mm
01:15 PM 48.7°F9.3°C 44.7°F7.1°C 86% 6.7 mph NNW10.8 kmh NNW 13.6 mph21.9 kmh 30.28 in1025.4 mb 0.03 in0.8 mm 0.12 in3.0 mm 0.08 in2.0 mm
01:00 PM 51.8°F11.0°C 43.8°F6.6°C 74% 6.3 mph NW10.1 kmh NW 17.4 mph28.0 kmh 30.28 in1025.4 mb 0.00 in0.0 mm 0.00 in0.0 mm 0.05 in1.3 mm
12:45 PM 51.8°F11.0°C 44.5°F6.9°C 76% 6.5 mph NW10.5 kmh NW 19.7 mph31.7 kmh 30.26 in1024.7 mb 0.00 in0.0 mm 0.00 in0.0 mm 0.05 in1.3 mm
12:30 PM 52.3°F11.3°C 44.7°F7.1°C 75% 4.6 mph NNW7.4 kmh NNW 14.5 mph23.3 kmh 30.27 in1025.1 mb 0.00 in0.0 mm 0.00 in0.0 mm 0.05 in1.3 mm
12:15 PM 52.5°F11.4°C 43.8°F6.6°C 72% 5.8 mph N9.3 kmh N 18.3 mph29.5 kmh 30.26 in1024.7 mb 0.00 in0.0 mm 0.00 in0.0 mm 0.05 in1.3 mm
12:00 PM 52.0°F11.1°C 45.3°F7.4°C 78% 5.7 mph NW9.2 kmh NW 18.3 mph29.5 kmh 30.25 in1024.4 mb 0.00 in0.0 mm 0.00 in0.0 mm 0.05 in1.3 mm
11:45 AM 50.5°F10.3°C 45.6°F7.6°C 83% 4.7 mph NW7.6 kmh NW 13.6 mph21.9 kmh 30.26 in1024.7 mb 0.00 in0.0 mm 0.00 in0.0 mm 0.05 in1.3 mm
11:30 AM 49.5°F9.7°C 45.1°F7.3°C 85% 4.3 mph N6.9 kmh N 11.4 mph18.3 kmh 30.26 in1024.7 mb 0.00 in0.0 mm 0.00 in0.0 mm 0.05 in1.3 mm
11:15 AM 51.6°F10.9°C 45.3°F7.4°C 79% 6.9 mph N11.1 kmh N 19.0 mph30.6 kmh 30.26 in1024.7 mb 0.00 in0.0 mm 0.00 in0.0 mm 0.05 in1.3 mm
11:00 AM 52.0°F11.1°C 44.0°F6.7°C 74% 9.6 mph NW15.4 kmh NW 24.4 mph39.3 kmh 30.24 in1024.0 mb 0.00 in0.0 mm 0.00 in0.0 mm 0.05 in1.3 mm
10:45 AM 52.0°F11.1°C 44.3°F6.8°C 75% 11.5 mph NW18.5 kmh NW 27.3 mph43.9 kmh 30.24 in1024.0 mb 0.00 in0.0 mm 0.00 in0.0 mm 0.05 in1.3 mm
10:30 AM 51.1°F10.6°C 45.1°F7.3°C 80% 8.1 mph WNW13.0 kmh WNW 22.1 mph35.6 kmh 30.24 in1024.0 mb 0.00 in0.0 mm 0.00 in0.0 mm 0.05 in1.3 mm
10:15 AM 50.5°F10.3°C 45.6°F7.6°C 83% 6.6 mph NW10.6 kmh NW 16.8 mph27.0 kmh 30.23 in1023.7 mb 0.00 in0.0 mm 0.00 in0.0 mm 0.05 in1.3 mm
10:00 AM 50.2°F10.1°C 45.5°F7.5°C 84% 6.2 mph WNW10.0 kmh WNW 22.1 mph35.6 kmh 30.23 in1023.7 mb 0.00 in0.0 mm 0.00 in0.0 mm 0.05 in1.3 mm
09:45 AM 49.5°F9.7°C 45.8°F7.7°C 87% 5.2 mph NW8.4 kmh NW 13.6 mph21.9 kmh 30.22 in1023.4 mb 0.00 in0.0 mm 0.00 in0.0 mm 0.05 in1.3 mm
09:30 AM 48.9°F9.4°C 45.2°F7.3°C 87% 6.0 mph NW9.7 kmh NW 15.9 mph25.6 kmh 30.22 in1023.4 mb 0.00 in0.0 mm 0.00 in0.0 mm 0.05 in1.3 mm
09:15 AM 48.4°F9.1°C 45.3°F7.4°C 89% 5.3 mph WNW8.5 kmh WNW 13.0 mph20.9 kmh 30.21 in1023.0 mb 0.00 in0.0 mm 0.00 in0.0 mm 0.05 in1.3 mm
09:00 AM 48.4°F9.1°C 45.0°F7.2°C 88% 5.3 mph WNW8.5 kmh WNW 19.7 mph31.7 kmh 30.20 in1022.7 mb 0.00 in0.0 mm 0.00 in0.0 mm 0.05 in1.3 mm
08:45 AM 48.2°F9.0°C 45.1°F7.3°C 89% 7.2 mph NW11.6 kmh NW 14.5 mph23.3 kmh 30.20 in1022.7 mb 0.00 in0.0 mm 0.00 in0.0 mm 0.05 in1.3 mm
08:30 AM 48.2°F9.0°C 45.1°F7.3°C 89% 7.6 mph NW12.2 kmh NW 17.4 mph28.0 kmh 30.19 in1022.4 mb 0.00 in0.0 mm 0.00 in0.0 mm 0.05 in1.3 mm
08:15 AM 48.6°F9.2°C 45.5°F7.5°C 89% 4.3 mph NW6.9 kmh NW 10.7 mph17.2 kmh 30.19 in1022.4 mb 0.00 in0.0 mm 0.00 in0.0 mm 0.05 in1.3 mm
08:00 AM 48.4°F9.1°C 45.6°F7.6°C 90% 5.4 mph WNW8.7 kmh WNW 13.6 mph21.9 kmh 30.18 in1022.0 mb 0.00 in0.0 mm 0.00 in0.0 mm 0.05 in1.3 mm
07:45 AM 46.2°F7.9°C 43.7°F6.5°C 91% 6.6 mph NW10.6 kmh NW 15.9 mph25.6 kmh 30.16 in1021.3 mb 0.00 in0.0 mm 0.00 in0.0 mm 0.05 in1.3 mm
07:30 AM 46.9°F8.3°C 44.7°F7.1°C 92% 8.0 mph NW12.9 kmh NW 18.3 mph29.5 kmh 30.15 in1021.0 mb 0.00 in0.0 mm 0.00 in0.0 mm 0.05 in1.3 mm
07:15 AM 46.4°F8.0°C 44.5°F6.9°C 93% 8.2 mph NW13.2 kmh NW 15.9 mph25.6 kmh 30.14 in1020.7 mb 0.00 in0.0 mm 0.00 in0.0 mm 0.05 in1.3 mm
07:00 AM 46.0°F7.8°C 43.8°F6.6°C 92% 8.1 mph NW13.0 kmh NW 18.3 mph29.5 kmh 30.13 in1020.3 mb 0.00 in0.0 mm 0.00 in0.0 mm 0.05 in1.3 mm
06:45 AM 45.9°F7.7°C 43.4°F6.3°C 91% 7.3 mph NW11.7 kmh NW 17.4 mph28.0 kmh 30.12 in1020.0 mb 0.00 in0.0 mm 0.00 in0.0 mm 0.05 in1.3 mm
06:30 AM 45.9°F7.7°C 42.8°F6.0°C 89% 5.7 mph NW9.2 kmh NW 18.3 mph29.5 kmh 30.12 in1020.0 mb 0.00 in0.0 mm 0.00 in0.0 mm 0.05 in1.3 mm
06:15 AM 45.9°F7.7°C 42.5°F5.8°C 88% 6.6 mph WSW10.6 kmh WSW 19.7 mph31.7 kmh 30.10 in1019.3 mb 0.00 in0.0 mm 0.00 in0.0 mm 0.05 in1.3 mm
06:00 AM 46.2°F7.9°C 43.2°F6.2°C 89% 8.2 mph WNW13.2 kmh WNW 19.7 mph31.7 kmh 30.09 in1019.0 mb 0.00 in0.0 mm 0.00 in0.0 mm 0.05 in1.3 mm
05:45 AM 46.4°F8.0°C 43.6°F6.4°C 90% 7.1 mph NW11.4 kmh NW 16.8 mph27.0 kmh 30.09 in1019.0 mb 0.00 in0.0 mm 0.00 in0.0 mm 0.05 in1.3 mm
05:30 AM 46.9°F8.3°C 43.9°F6.6°C 89% 8.0 mph NW12.9 kmh NW 22.1 mph35.6 kmh 30.08 in1018.6 mb 0.00 in0.0 mm 0.00 in0.0 mm 0.05 in1.3 mm
05:15 AM 47.3°F8.5°C 44.5°F6.9°C 90% 5.8 mph WNW9.3 kmh WNW 20.6 mph33.2 kmh 30.07 in1018.3 mb 0.00 in0.0 mm 0.00 in0.0 mm 0.05 in1.3 mm
05:00 AM 48.2°F9.0°C 45.4°F7.4°C 90% 5.8 mph NW9.3 kmh NW 15.2 mph24.5 kmh 30.05 in1017.6 mb 0.00 in0.0 mm 0.00 in0.0 mm 0.05 in1.3 mm
04:45 AM 46.9°F8.3°C 44.5°F6.9°C 91% 6.2 mph NW10.0 kmh NW 18.3 mph29.5 kmh 30.05 in1017.6 mb 0.00 in0.0 mm 0.00 in0.0 mm 0.05 in1.3 mm
04:30 AM 46.9°F8.3°C 44.5°F6.9°C 91% 7.8 mph NW12.6 kmh NW 22.1 mph35.6 kmh 30.04 in1017.3 mb 0.00 in0.0 mm 0.00 in0.0 mm 0.05 in1.3 mm
04:15 AM 46.8°F8.2°C 44.6°F7.0°C 92% 8.9 mph NW14.3 kmh NW 24.4 mph39.3 kmh 30.04 in1017.3 mb 0.00 in0.0 mm 0.00 in0.0 mm 0.05 in1.3 mm
04:00 AM 46.6°F8.1°C 44.4°F6.9°C 92% 11.0 mph NW17.7 kmh NW 24.4 mph39.3 kmh 30.03 in1016.9 mb 0.00 in0.0 mm 0.00 in0.0 mm 0.05 in1.3 mm
03:45 AM 46.8°F8.2°C 44.0°F6.7°C 90% 12.1 mph NW19.5 kmh NW 28.2 mph45.4 kmh 30.02 in1016.6 mb 0.00 in0.0 mm 0.00 in0.0 mm 0.05 in1.3 mm
03:30 AM 47.5°F8.6°C 44.7°F7.1°C 90% 12.2 mph NW19.6 kmh NW 28.2 mph45.4 kmh 30.01 in1016.3 mb 0.00 in0.0 mm 0.00 in0.0 mm 0.05 in1.3 mm
03:15 AM 48.2°F9.0°C 46.3°F7.9°C 93% 8.9 mph NW14.3 kmh NW 19.0 mph30.6 kmh 30.00 in1015.9 mb 0.00 in0.0 mm 0.00 in0.0 mm 0.05 in1.3 mm
03:00 AM 48.4°F9.1°C 47.0°F8.3°C 95% 11.4 mph NW18.3 kmh NW 28.2 mph45.4 kmh 29.97 in1014.9 mb 0.00 in0.0 mm 0.00 in0.0 mm 0.05 in1.3 mm
02:45 AM 48.7°F9.3°C 47.9°F8.8°C 97% 8.7 mph NW14.0 kmh NW 21.3 mph34.3 kmh 29.97 in1014.9 mb 0.00 in0.0 mm 0.00 in0.0 mm 0.05 in1.3 mm
02:30 AM 48.9°F9.4°C 48.4°F9.1°C 98% 10.3 mph NW16.6 kmh NW 25.1 mph40.4 kmh 29.96 in1014.6 mb 0.00 in0.0 mm 0.00 in0.0 mm 0.05 in1.3 mm
02:15 AM 49.1°F9.5°C 48.8°F9.3°C 99% 10.6 mph NW17.1 kmh NW 27.3 mph43.9 kmh 29.94 in1013.9 mb 0.00 in0.0 mm 0.00 in0.0 mm 0.05 in1.3 mm
02:00 AM 49.3°F9.6°C 49.3°F9.6°C 100% 8.2 mph NW13.2 kmh NW 22.8 mph36.7 kmh 29.93 in1013.5 mb 0.00 in0.0 mm 0.00 in0.0 mm 0.05 in1.3 mm
01:45 AM 49.8°F9.9°C 49.8°F9.9°C 100% 10.8 mph NW17.4 kmh NW 28.9 mph46.5 kmh 29.91 in1012.9 mb 0.00 in0.0 mm 0.00 in0.0 mm 0.05 in1.3 mm
01:30 AM 50.7°F10.4°C 50.7°F10.4°C 100% 12.1 mph NW19.5 kmh NW 28.9 mph46.5 kmh 29.90 in1012.5 mb 0.02 in0.5 mm 0.00 in0.0 mm 0.05 in1.3 mm
01:15 AM 51.8°F11.0°C 51.8°F11.0°C 100% 12.1 mph NW19.5 kmh NW 32.0 mph51.5 kmh 29.88 in1011.9 mb 0.03 in0.8 mm 0.00 in0.0 mm 0.05 in1.3 mm
01:00 AM 52.9°F11.6°C 52.9°F11.6°C 100% 9.4 mph NW15.1 kmh NW 21.3 mph34.3 kmh 29.86 in1011.2 mb 0.03 in0.8 mm 0.00 in0.0 mm 0.05 in1.3 mm
12:45 AM 54.9°F12.7°C 54.9°F12.7°C 100% 12.7 mph NW20.4 kmh NW 46.3 mph74.5 kmh 29.86 in1011.2 mb 0.05 in1.3 mm 0.08 in2.0 mm 0.05 in1.3 mm
12:30 AM 56.1°F13.4°C 56.1°F13.4°C 100% 6.0 mph W9.7 kmh W 13.6 mph21.9 kmh 29.78 in1008.5 mb 0.03 in0.8 mm 0.04 in1.0 mm 0.03 in0.8 mm
12:15 AM 56.1°F13.4°C 56.1°F13.4°C 100% 5.2 mph WSW8.4 kmh WSW 14.5 mph23.3 kmh 29.76 in1007.8 mb 0.02 in0.5 mm 0.00 in0.0 mm 0.02 in0.5 mm
12:00 AM 56.1°F13.4°C 56.1°F13.4°C 100% 3.4 mph WSW5.5 kmh WSW 9.8 mph15.8 kmh 29.78 in1008.5 mb 0.02 in0.5 mm 0.00 in0.0 mm 0.02 in0.5 mm